Time;durP1;ratioP1;P1;durP2;ratioP2;P2;SDS_P1;SDS_P2;PMS_P1;PMS_P2;Temp;Humidity;BMP_temperature;BMP_pressure;BME280_temperature;BME280_humidity;BME280_pressure;Samples;Min_cycle;Max_cycle;Signal;HPM_P1;HPM_P2
2022/07/30 00:02:20;;;;;;;8.13;4.80;;;20.60;91.30;;;;;;5002496;28;20026;-82
2022/07/30 00:04:47;;;;;;;4.28;3.88;;;;;;;;;;5005908;28;20033;-87
2022/07/30 00:07:13;;;;;;;7.05;4.00;;;20.50;91.90;;;;;;5005065;28;20022;-80
2022/07/30 00:09:39;;;;;;;7.55;4.45;;;20.40;91.80;;;;;;5003130;28;20131;-81
2022/07/30 00:12:07;;;;;;;11.05;4.80;;;20.30;92.10;;;;;;5001439;28;20038;-84
2022/07/30 00:14:33;;;;;;;6.40;4.78;;;20.30;92.50;;;;;;5003408;28;20022;-83
2022/07/30 00:17:00;;;;;;;5.50;3.80;;;20.20;93.00;;;;;;5021185;28;20104;-80
2022/07/30 00:19:26;;;;;;;6.75;4.25;;;;;;;;;;5018998;28;20038;-83
2022/07/30 00:21:53;;;;;;;5.30;4.10;;;20.20;93.20;;;;;;5021387;28;20173;-79
2022/07/30 00:24:20;;;;;;;7.45;4.20;;;21.10;93.90;;;;;;5002738;28;20042;-85
2022/07/30 00:26:47;;;;;;;5.22;4.05;;;20.10;93.80;;;;;;5006375;28;20030;-80
2022/07/30 00:29:13;;;;;;;11.55;4.45;;;;;;;;;;5000318;28;20049;-84
2022/07/30 00:31:39;;;;;;;6.40;3.92;;;;;;;;;;5014759;28;20030;-84
2022/07/30 00:34:06;;;;;;;5.80;4.20;;;;;;;;;;4998690;28;20543;-83
2022/07/30 00:36:32;;;;;;;8.07;4.38;;;;;;;;;;5005684;28;20026;-84
2022/07/30 00:38:58;;;;;;;5.93;3.85;;;19.90;94.80;;;;;;5021542;28;20038;-82
2022/07/30 00:41:24;;;;;;;6.93;4.22;;;;;;;;;;5003280;28;20052;-84
2022/07/30 00:43:50;;;;;;;6.03;3.95;;;;;;;;;;5000134;28;20057;-86
2022/07/30 00:46:16;;;;;;;7.60;4.15;;;;;;;;;;5002117;28;20045;-84
2022/07/30 00:48:42;;;;;;;6.22;4.20;;;19.70;95.50;;;;;;5017592;28;20029;-85
2022/07/30 00:51:08;;;;;;;7.15;4.38;;;;;;;;;;5021806;28;20089;-83
2022/07/30 00:53:34;;;;;;;5.53;4.13;;;19.70;95.70;;;;;;5020687;28;20022;-84
2022/07/30 00:56:03;;;;;;;5.88;4.30;;;19.70;96.00;;;;;;5004010;28;20061;-87
2022/07/30 00:58:29;;;;;;;6.47;4.35;;;19.70;96.10;;;;;;5019331;28;20025;-83
2022/07/30 01:00:54;;;;;;;8.02;4.57;;;19.70;96.20;;;;;;5002563;28;20026;-84
2022/07/30 01:03:20;;;;;;;5.68;3.97;;;;;;;;;;5006610;28;20693;-83
2022/07/30 01:05:50;;;;;;;6.00;4.20;;;;;;;;;;5004059;28;20038;-83
2022/07/30 01:08:16;;;;;;;7.72;4.07;;;19.70;96.20;;;;;;5022993;28;20026;-82
2022/07/30 01:10:42;;;;;;;6.40;4.50;;;;;;;;;;5016127;28;20060;-84
2022/07/30 01:13:08;;;;;;;5.55;4.00;;;19.60;96.50;;;;;;4997967;28;20113;-82
2022/07/30 01:15:34;;;;;;;7.00;4.00;;;19.50;96.60;;;;;;5007146;28;20086;-85
2022/07/30 01:18:04;;;;;;;6.32;4.47;;;19.50;96.80;;;;;;4997226;28;20034;-87
2022/07/30 01:20:35;;;;;;;6.50;4.17;;;19.40;97.00;;;;;;5017440;28;20038;-84
2022/07/30 01:23:16;;;;;;;5.80;4.10;;;19.40;97.10;;;;;;5019361;28;20400;-84
2022/07/30 01:25:42;;;;;;;5.68;3.83;;;;;;;;;;5003157;28;20045;-84
2022/07/30 01:28:16;;;;;;;7.80;4.10;;;19.20;97.40;;;;;;5001854;28;20037;-83
2022/07/30 01:30:45;;;;;;;5.80;4.20;;;19.20;97.70;;;;;;5019902;28;20046;-84
2022/07/30 01:33:13;;;;;;;6.03;3.88;;;19.10;98.00;;;;;;5003519;28;20026;-84
2022/07/30 01:35:40;;;;;;;7.28;4.30;;;19.10;98.20;;;;;;4998024;28;20038;-85
2022/07/30 01:38:08;;;;;;;7.20;4.38;;;19.10;98.20;;;;;;5001019;28;20542;-82
2022/07/30 01:40:36;;;;;;;7.38;4.28;;;19.00;98.20;;;;;;5003085;28;20039;-85
2022/07/30 01:43:06;;;;;;;6.78;4.05;;;19.00;98.40;;;;;;4987930;28;20049;-80
2022/07/30 01:45:33;;;;;;;9.35;4.60;;;19.00;98.50;;;;;;5028278;28;20058;-83
2022/07/30 01:48:02;;;;;;;8.40;3.97;;;18.90;98.60;;;;;;5025478;28;20028;-83
2022/07/30 01:50:31;;;;;;;5.97;4.30;;;18.90;98.70;;;;;;5020622;28;20464;-83
2022/07/30 01:52:58;;;;;;;5.55;4.18;;;18.80;98.90;;;;;;5005296;28;20034;-83
2022/07/30 01:55:44;;;;;;;5.03;4.40;;;18.80;99.10;;;;;;5006649;28;20116;-84
2022/07/30 01:58:11;;;;;;;7.53;4.68;;;18.80;99.30;;;;;;5017792;28;20025;-86
2022/07/30 02:00:40;;;;;;;6.40;4.10;;;18.70;99.40;;;;;;5016327;28;20507;-83
2022/07/30 02:03:07;;;;;;;5.38;4.35;;;;;;;;;;5005457;28;20484;-86
2022/07/30 02:05:35;;;;;;;7.38;4.00;;;18.70;99.50;;;;;;5004663;28;20030;-82
2022/07/30 02:08:13;;;;;;;7.88;3.92;;;18.70;99.90;;;;;;4995004;28;20021;-81
2022/07/30 02:10:48;;;;;;;7.25;4.63;;;18.70;99.90;;;;;;5005557;28;20022;-83
2022/07/30 02:13:19;;;;;;;5.10;4.38;;;18.60;99.90;;;;;;5004103;28;20060;-84
2022/07/30 02:16:05;;;;;;;5.38;3.85;;;18.50;99.90;;;;;;5018610;28;20161;-83
2022/07/30 02:18:37;;;;;;;8.50;4.63;;;18.50;99.90;;;;;;5006003;28;20026;-81
2022/07/30 02:21:06;;;;;;;6.53;4.43;;;18.50;99.90;;;;;;5004523;28;20026;-82
2022/07/30 02:23:37;;;;;;;6.93;4.75;;;18.40;99.90;;;;;;5017580;28;20026;-90
2022/07/30 02:26:04;;;;;;;7.25;4.78;;;18.40;99.90;;;;;;5001080;28;20045;-81
2022/07/30 02:28:35;;;;;;;10.05;5.82;;;18.30;99.90;;;;;;4985169;28;20118;-83
2022/07/30 02:31:01;;;;;;;8.98;4.63;;;;;;;;;;5003024;28;20399;-87
2022/07/30 02:33:32;;;;;;;8.30;5.05;;;18.30;99.90;;;;;;5019044;28;20022;-82
2022/07/30 02:35:58;;;;;;;;;;;18.30;99.90;;;;;;5001819;28;20037;-83
2022/07/30 02:38:26;;;;;;;6.05;4.53;;;18.30;99.90;;;;;;5005292;28;19979;-83
2022/07/30 02:40:54;;;;;;;6.68;4.68;;;18.50;99.90;;;;;;5013783;28;20196;-85
2022/07/30 02:43:23;;;;;;;7.32;4.97;;;18.30;99.90;;;;;;5004894;28;20027;-84
2022/07/30 02:45:50;;;;;;;7.25;4.80;;;;;;;;;;5003886;28;20049;-81
2022/07/30 02:48:19;;;;;;;8.63;4.93;;;18.20;99.90;;;;;;5018071;28;20109;-81
2022/07/30 02:50:45;;;;;;;6.25;4.65;;;;;;;;;;5013092;28;20026;-83
2022/07/30 02:53:13;;;;;;;6.93;5.10;;;18.20;99.90;;;;;;4998793;28;20017;-82
2022/07/30 02:55:41;;;;;;;8.73;4.75;;;18.30;99.90;;;;;;4996954;28;20073;-84
2022/07/30 02:58:09;;;;;;;6.25;5.00;;;18.20;99.90;;;;;;5001396;28;20026;-82
2022/07/30 03:00:37;;;;;;;9.88;5.20;;;18.20;99.90;;;;;;5004060;28;20092;-84
2022/07/30 03:03:06;;;;;;;10.90;6.15;;;18.20;99.90;;;;;;4987218;28;20042;-82
2022/07/30 03:05:33;;;;;;;6.85;4.93;;;18.10;99.90;;;;;;5020219;28;20026;-80
2022/07/30 03:08:00;;;;;;;8.60;4.72;;;18.10;99.90;;;;;;5019265;28;20029;-82
2022/07/30 03:10:26;;;;;;;7.93;5.25;;;18.10;99.90;;;;;;4995507;28;20448;-83
2022/07/30 03:12:54;;;;;;;6.85;5.20;;;18.10;99.90;;;;;;4998131;28;20029;-82
2022/07/30 03:15:20;;;;;;;6.57;5.10;;;18.10;99.90;;;;;;5016518;28;20040;-81
2022/07/30 03:17:51;;;;;;;7.30;4.88;;;18.00;99.90;;;;;;5003082;28;20034;-84
2022/07/30 03:20:22;;;;;;;8.77;5.30;;;18.10;99.90;;;;;;4993597;28;20464;-82
2022/07/30 03:22:50;;;;;;;;;;;18.00;99.90;;;;;;5001534;28;20562;-81
2022/07/30 03:25:21;;;;;;;9.77;5.25;;;18.00;99.90;;;;;;4993821;28;19924;-83
2022/07/30 03:27:48;;;;;;;8.35;5.60;;;17.80;99.90;;;;;;4996817;28;20022;-82
2022/07/30 03:30:15;;;;;;;5.85;4.80;;;;;;;;;;5017207;28;20383;-81
2022/07/30 03:32:41;;;;;;;7.80;5.07;;;17.70;99.90;;;;;;5021245;28;20046;-81
2022/07/30 03:35:08;;;;;;;7.03;4.80;;;17.60;99.90;;;;;;5001738;28;20034;-82
2022/07/30 03:37:37;;;;;;;10.60;5.57;;;17.60;99.90;;;;;;5013598;28;20045;-83
2022/07/30 03:40:05;;;;;;;7.82;5.47;;;17.60;99.90;;;;;;4989996;28;20042;-81
2022/07/30 03:42:32;;;;;;;7.82;5.07;;;17.60;99.90;;;;;;4995659;28;20041;-82
2022/07/30 03:45:02;;;;;;;7.95;5.30;;;17.50;99.90;;;;;;5018535;28;20034;-84
2022/07/30 03:47:31;;;;;;;8.07;5.13;;;19.30;99.90;;;;;;4986623;28;20022;-81
2022/07/30 03:49:58;;;;;;;7.43;4.95;;;;;;;;;;4999859;28;20026;-80
2022/07/30 03:52:26;;;;;;;7.72;5.40;;;17.60;99.90;;;;;;5003347;28;20363;-79
2022/07/30 03:54:52;;;;;;;7.35;5.55;;;17.50;99.90;;;;;;5020933;28;20026;-80
2022/07/30 03:57:19;;;;;;;9.52;5.32;;;;;;;;;;4999408;28;20031;-79
2022/07/30 03:59:45;;;;;;;6.38;5.40;;;17.50;99.90;;;;;;5004092;28;20038;-80
2022/07/30 04:02:11;;;;;;;7.90;5.38;;;17.30;99.90;;;;;;4999592;28;20029;-82
2022/07/30 04:04:41;;;;;;;13.02;5.93;;;17.30;99.90;;;;;;5010793;28;20034;-81
2022/07/30 04:07:07;;;;;;;6.78;5.40;;;;;;;;;;5022087;28;20109;-81
2022/07/30 04:09:33;;;;;;;8.02;5.40;;;17.30;99.90;;;;;;5010180;28;20049;-78
2022/07/30 04:11:59;;;;;;;6.85;5.43;;;;;;;;;;4997430;28;20026;-82
2022/07/30 04:14:25;;;;;;;10.00;5.63;;;;;;;;;;5002805;28;20237;-81
2022/07/30 04:17:00;;;;;;;6.90;5.25;;;17.10;99.90;;;;;;5022571;28;20030;-80
2022/07/30 04:19:35;;;;;;;8.00;5.57;;;17.20;99.90;;;;;;5021180;28;20060;-85
2022/07/30 04:22:02;;;;;;;7.70;5.40;;;17.10;99.90;;;;;;5021333;28;20028;-81
2022/07/30 04:24:31;;;;;;;7.70;5.85;;;17.10;99.90;;;;;;5003621;28;20053;-82
2022/07/30 04:26:59;;;;;;;7.72;5.45;;;17.10;99.90;;;;;;5017805;28;20026;-81
2022/07/30 04:29:25;;;;;;;6.35;5.18;;;17.50;99.90;;;;;;5009765;28;20026;-81
2022/07/30 04:31:52;;;;;;;9.85;5.78;;;17.00;99.90;;;;;;5003317;28;20142;-80
2022/07/30 04:34:18;;;;;;;8.23;5.45;;;;;;;;;;5021294;28;20026;-81
2022/07/30 04:36:45;;;;;;;8.48;6.10;;;17.00;99.90;;;;;;5003925;28;20060;-82
2022/07/30 04:39:12;;;;;;;8.52;5.70;;;16.90;99.90;;;;;;5019822;28;20045;-81
2022/07/30 04:41:38;;;;;;;9.70;6.47;;;17.00;99.90;;;;;;5005129;28;20030;-81
2022/07/30 04:44:04;;;;;;;8.85;5.82;;;17.00;99.90;;;;;;5004427;28;20491;-83
2022/07/30 04:46:30;;;;;;;9.75;5.72;;;;;;;;;;4998427;28;20033;-82
2022/07/30 04:48:56;;;;;;;7.65;5.85;;;;;;;;;;4997919;28;20053;-81
2022/07/30 04:51:26;;;;;;;8.18;5.72;;;16.80;99.90;;;;;;5002807;28;21993;-83
2022/07/30 04:53:53;;;;;;;9.77;6.32;;;16.90;99.90;;;;;;4997166;28;20034;-81
2022/07/30 04:56:20;;;;;;;11.35;6.45;;;16.90;99.90;;;;;;4998627;28;20117;-81
2022/07/30 04:58:46;;;;;;;7.57;6.05;;;;;;;;;;5000225;28;20415;-83
2022/07/30 05:01:17;;;;;;;6.95;5.45;;;16.90;99.90;;;;;;4995892;28;20368;-81
2022/07/30 05:03:45;;;;;;;7.43;6.00;;;17.00;99.90;;;;;;4996085;28;20099;-79
2022/07/30 05:06:11;;;;;;;8.30;5.97;;;17.10;99.90;;;;;;5016658;28;20049;-81
2022/07/30 05:08:38;;;;;;;9.82;6.22;;;17.20;99.90;;;;;;4992545;28;20172;-79
2022/07/30 05:11:04;;;;;;;8.38;5.80;;;;;;;;;;4992596;28;20551;-85
2022/07/30 05:13:30;;;;;;;9.43;6.07;;;;;;;;;;5010232;28;20018;-81
2022/07/30 05:15:56;;;;;;;9.73;6.20;;;;;;;;;;5004291;28;20064;-83
2022/07/30 05:18:22;;;;;;;8.77;5.75;;;;;;;;;;5006234;28;20022;-83
2022/07/30 05:20:48;;;;;;;9.43;6.47;;;;;;;;;;5001579;28;20491;-81
2022/07/30 05:23:16;;;;;;;8.35;6.00;;;;;;;;;;4985497;28;20121;-84
2022/07/30 05:25:42;;;;;;;12.57;6.13;;;;;;;;;;5015575;28;20069;-83
2022/07/30 05:28:08;;;;;;;8.35;6.07;;;;;;;;;;5002435;28;20080;-82
2022/07/30 05:30:34;;;;;;;10.35;6.10;;;;;;;;;;4998924;28;20029;-81
2022/07/30 05:33:01;;;;;;;9.65;6.47;;;;;;;;;;5020413;28;20029;-82
2022/07/30 05:35:27;;;;;;;8.02;5.32;;;;;;;;;;5006323;28;20030;-79
2022/07/30 05:37:53;;;;;;;8.52;5.10;;;;;;;;;;5002972;28;20547;-81
2022/07/30 05:40:19;;;;;;;104.30;10.32;;;;;;;;;;5003801;28;20030;-81
2022/07/30 05:42:45;;;;;;;18.65;6.97;;;;;;;;;;5012645;28;20665;-80
2022/07/30 05:45:11;;;;;;;10.45;5.70;;;;;;;;;;5005164;28;20080;-80
2022/07/30 05:47:37;;;;;;;9.48;5.07;;;;;;;;;;5020013;28;20057;-80
2022/07/30 05:50:03;;;;;;;6.28;4.63;;;21.50;96.20;;;;;;5029108;28;20026;-80
2022/07/30 05:52:29;;;;;;;6.55;4.88;;;;;;;;;;4999733;28;20109;-82
2022/07/30 05:54:55;;;;;;;7.88;5.15;;;;;;;;;;4998191;28;20064;-86
2022/07/30 05:57:21;;;;;;;7.65;4.93;;;;;;;;;;5006197;28;20034;-84
2022/07/30 05:59:48;;;;;;;7.82;4.70;;;23.00;92.40;;;;;;5011910;28;20022;-84
2022/07/30 06:02:14;;;;;;;7.32;4.90;;;22.50;93.20;;;;;;5004720;28;20026;-79
2022/07/30 06:04:39;;;;;;;8.60;5.00;;;22.50;93.50;;;;;;5020450;28;20049;-81
2022/07/30 06:07:05;;;;;;;6.28;4.78;;;22.90;93.00;;;;;;5000574;28;20100;-86
2022/07/30 06:09:33;;;;;;;7.00;5.53;;;22.50;92.90;;;;;;5004697;28;20018;-80
2022/07/30 06:11:59;;;;;;;8.40;5.72;;;22.20;93.20;;;;;;5016513;28;20516;-79
2022/07/30 06:14:24;;;;;;;7.45;5.90;;;21.80;93.90;;;;;;5005821;28;20033;-81
2022/07/30 06:16:50;;;;;;;7.95;5.70;;;21.60;94.50;;;;;;5003008;28;20101;-80
2022/07/30 06:19:16;;;;;;;9.27;6.32;;;21.40;95.10;;;;;;5006111;28;20033;-83
2022/07/30 06:21:41;;;;;;;11.25;6.15;;;21.10;95.40;;;;;;5002571;28;20437;-81
2022/07/30 06:24:07;;;;;;;11.18;6.60;;;20.70;96.60;;;;;;4998940;28;20025;-80
2022/07/30 06:26:33;;;;;;;7.88;5.60;;;20.70;96.90;;;;;;5002954;28;20026;-79
2022/07/30 06:28:59;;;;;;;7.45;5.70;;;20.60;97.20;;;;;;5016640;28;20022;-79
2022/07/30 06:31:24;;;;;;;10.27;6.30;;;20.70;97.00;;;;;;5002269;28;20188;-80
2022/07/30 06:33:50;;;;;;;9.82;6.03;;;20.80;97.00;;;;;;5017270;28;20035;-85
2022/07/30 06:36:16;;;;;;;7.53;5.68;;;20.80;97.00;;;;;;4993114;28;20026;-79
2022/07/30 06:38:42;;;;;;;10.50;6.35;;;;;;;;;;4995904;28;20042;-80
2022/07/30 06:41:08;;;;;;;7.82;5.80;;;20.60;97.20;;;;;;5017727;28;20034;-83
2022/07/30 06:43:34;;;;;;;7.57;5.28;;;20.90;96.70;;;;;;4999912;28;20057;-80
2022/07/30 06:46:00;;;;;;;11.40;5.70;;;21.10;96.30;;;;;;4986933;28;20034;-80
2022/07/30 06:48:25;;;;;;;10.98;5.70;;;21.20;95.90;;;;;;5003517;28;20037;-81
2022/07/30 06:50:51;;;;;;;9.05;5.93;;;21.20;96.10;;;;;;4999327;28;20038;-79
2022/07/30 06:53:17;;;;;;;12.50;5.60;;;;;;;;;;5000038;28;20033;-82
2022/07/30 06:55:43;;;;;;;8.50;5.53;;;21.20;95.70;;;;;;5000837;28;20029;-82
2022/07/30 06:58:09;;;;;;;10.80;5.85;;;;;;;;;;5003970;28;20037;-81
2022/07/30 07:00:36;;;;;;;9.77;5.68;;;21.30;95.50;;;;;;5002736;28;20029;-78
2022/07/30 07:03:03;;;;;;;11.20;5.68;;;21.50;95.40;;;;;;5023394;28;20030;-79
2022/07/30 07:05:29;;;;;;;9.82;5.32;;;21.50;94.80;;;;;;5001225;28;20026;-83
2022/07/30 07:07:55;;;;;;;13.88;4.10;;;;;;;;;;5001039;28;20112;-81
2022/07/30 07:10:24;;;;;;;6.07;3.97;;;;;;;;;;5003177;28;20309;-80
2022/07/30 07:12:50;;;;;;;9.07;4.03;;;;;;;;;;5013815;28;20029;-82
2022/07/30 07:15:16;;;;;;;7.18;4.07;;;;;;;;;;5004382;28;20030;-82
2022/07/30 07:17:42;;;;;;;8.10;4.07;;;;;;;;;;5017898;28;20025;-80
2022/07/30 07:20:10;;;;;;;7.85;4.45;;;;;;;;;;5001750;28;20093;-84
2022/07/30 07:22:36;;;;;;;8.85;4.35;;;;;;;;;;5004197;28;20021;-87
2022/07/30 07:25:03;;;;;;;7.90;4.50;;;;;;;;;;5017672;28;20076;-81
2022/07/30 07:27:29;;;;;;;11.40;3.72;;;;;;;;;;5003822;28;20560;-81
2022/07/30 07:29:55;;;;;;;9.98;4.55;;;;;;;;;;5004215;28;20034;-81
2022/07/30 07:32:21;;;;;;;9.25;4.10;;;;;;;;;;5021038;28;20048;-82
2022/07/30 07:34:47;;;;;;;10.25;4.35;;;;;;;;;;5000665;28;20532;-81
2022/07/30 07:37:14;;;;;;;8.95;4.07;;;;;;;;;;4995074;28;20032;-81
2022/07/30 07:39:41;;;;;;;7.15;3.78;;;;;;;;;;5001456;28;20026;-86
2022/07/30 07:42:09;;;;;;;6.60;3.90;;;;;;;;;;5013934;28;20056;-80
2022/07/30 07:44:35;;;;;;;5.65;3.83;;;;;;;;;;4997284;28;20066;-82
2022/07/30 07:47:01;;;;;;;8.70;4.38;;;;;;;;;;5000725;28;20042;-81
2022/07/30 07:49:27;;;;;;;7.35;3.63;;;;;;;;;;4999706;28;20515;-82
2022/07/30 07:51:56;;;;;;;8.82;3.78;;;;;;;;;;4999780;28;20037;-82
2022/07/30 07:54:23;;;;;;;7.13;3.63;;;;;;;;;;5006198;28;20029;-81
2022/07/30 07:56:54;;;;;;;8.68;4.15;;;;;;;;;;5021136;28;20061;-81
2022/07/30 07:59:21;;;;;;;8.35;3.20;;;;;;;;;;4986085;28;20155;-81
2022/07/30 08:01:47;;;;;;;6.57;3.53;;;;;;;;;;5001878;28;20800;-84
2022/07/30 08:04:13;;;;;;;4.85;3.17;;;;;;;;;;5000080;28;20029;-82
2022/07/30 08:06:39;;;;;;;7.35;3.72;;;;;;;;;;5000516;28;20111;-81
2022/07/30 08:09:05;;;;;;;6.38;3.38;;;;;;;;;;5001042;28;20026;-84
2022/07/30 08:11:31;;;;;;;6.85;3.20;;;;;;;;;;4999813;28;20033;-81
2022/07/30 08:13:57;;;;;;;6.18;3.17;;;;;;;;;;5001939;28;20023;-81
2022/07/30 08:16:25;;;;;;;6.43;2.53;;;;;;;;;;5015500;28;20058;-83
2022/07/30 08:18:51;;;;;;;6.22;3.00;;;;;;;;;;5014927;28;20018;-87
2022/07/30 08:21:17;;;;;;;4.35;2.88;;;;;;;;;;5017466;28;20029;-87
2022/07/30 08:23:43;;;;;;;6.45;2.65;;;;;;;;;;5036049;28;20010;-85
2022/07/30 08:26:09;;;;;;;5.80;3.17;;;;;;;;;;5015943;28;21408;-88
2022/07/30 08:28:38;;;;;;;5.53;3.10;;;;;;;;;;5007344;28;20030;-86
2022/07/30 08:31:05;;;;;;;5.40;2.67;;;;;;;;;;5015969;28;20034;-80
2022/07/30 08:33:31;;;;;;;5.75;2.60;;;;;;;;;;5000081;28;20095;-84
2022/07/30 08:35:57;;;;;;;4.75;2.63;;;;;;;;;;5015542;28;20037;-81
2022/07/30 08:38:23;;;;;;;6.45;2.47;;;;;;;;;;5002516;28;20093;-81
2022/07/30 08:40:49;;;;;;;5.18;2.80;;;;;;;;;;4998356;28;20026;-82
2022/07/30 08:43:15;;;;;;;4.40;2.53;;;;;;;;;;4999296;28;20048;-82
2022/07/30 08:45:42;;;;;;;4.72;2.30;;;25.40;79.30;;;;;;5013575;28;20434;-82
2022/07/30 08:48:11;;;;;;;5.97;2.90;;;25.60;79.90;;;;;;5001234;28;20671;-80
2022/07/30 08:50:38;;;;;;;4.25;2.50;;;25.70;75.90;;;;;;5001631;28;20120;-83
2022/07/30 08:53:04;;;;;;;5.85;2.58;;;;;;;;;;5003317;28;20054;-81
2022/07/30 08:55:30;;;;;;;4.45;2.38;;;;;;;;;;4999760;28;20026;-83
2022/07/30 08:57:56;;;;;;;8.77;2.50;;;;;;;;;;4998442;28;20034;-81
2022/07/30 09:00:22;;;;;;;5.45;2.40;;;;;;;;;;5007593;28;20034;-81
2022/07/30 09:02:48;;;;;;;4.90;2.40;;;;;;;;;;4999252;28;20510;-85
2022/07/30 09:05:14;;;;;;;8.38;2.90;;;26.10;75.80;;;;;;4992940;28;20037;-83
2022/07/30 09:07:40;;;;;;;3.40;2.03;;;;;;;;;;5010454;28;20026;-81
2022/07/30 09:10:08;;;;;;;4.88;2.90;;;26.20;73.70;;;;;;4997759;28;20034;-82
2022/07/30 09:12:34;;;;;;;6.20;2.75;;;;;;;;;;5000343;28;20026;-82
2022/07/30 09:15:11;;;;;;;6.75;2.55;;;26.30;73.70;;;;;;5000141;28;20033;-82
2022/07/30 09:17:49;;;;;;;4.72;2.08;;;26.40;73.20;;;;;;5011378;28;20042;-82
2022/07/30 09:20:15;;;;;;;3.92;2.35;;;;;;;;;;5012662;28;20022;-83
2022/07/30 09:22:46;;;;;;;4.78;2.60;;;26.50;72.30;;;;;;5016289;28;20520;-84
2022/07/30 09:25:14;;;;;;;9.45;2.33;;;;;;;;;;4998592;28;20030;-82
2022/07/30 09:27:48;;;;;;;4.43;2.00;;;26.70;70.90;;;;;;5001096;28;20022;-83
2022/07/30 09:30:15;;;;;;;7.05;2.45;;;;;;;;;;4978881;28;20484;-82
2022/07/30 09:32:53;;;;;;;4.25;2.15;;;26.80;69.90;;;;;;5002215;28;20569;-83
2022/07/30 09:35:19;;;;;;;4.88;2.58;;;26.90;70.50;;;;;;4997374;28;20033;-87
2022/07/30 09:37:46;;;;;;;5.00;2.33;;;27.10;69.30;;;;;;5000059;28;20026;-82
2022/07/30 09:40:17;;;;;;;7.82;2.22;;;27.70;72.40;;;;;;5011299;28;20038;-81
2022/07/30 09:42:43;;;;;;;4.28;1.95;;;27.10;69.00;;;;;;5015709;28;20184;-84
2022/07/30 09:45:10;;;;;;;5.35;2.15;;;27.10;69.70;;;;;;4995647;28;20030;-84
2022/07/30 09:47:39;;;;;;;5.07;2.55;;;27.20;68.30;;;;;;4999338;28;20018;-83
2022/07/30 09:50:05;;;;;;;4.75;2.13;;;;;;;;;;4999048;28;20117;-84
2022/07/30 09:52:31;;;;;;;4.50;2.10;;;27.30;68.10;;;;;;4999639;28;20030;-81
2022/07/30 09:54:57;;;;;;;4.53;1.95;;;;;;;;;;5011959;28;20076;-82
2022/07/30 09:57:23;;;;;;;6.63;2.20;;;27.50;66.30;;;;;;5014336;28;20026;-81
2022/07/30 09:59:49;;;;;;;7.15;1.95;;;27.50;65.90;;;;;;4999496;28;20037;-86
2022/07/30 10:02:14;;;;;;;2.58;1.85;;;27.50;65.50;;;;;;5018926;28;20022;-86
2022/07/30 10:04:40;;;;;;;3.42;2.13;;;;;;;;;;4995849;28;20117;-82
2022/07/30 10:07:19;;;;;;;3.78;1.95;;;27.70;65.10;;;;;;5010935;28;20038;-84
2022/07/30 10:09:47;;;;;;;4.50;1.98;;;27.70;64.70;;;;;;4998588;28;20030;-83
2022/07/30 10:12:14;;;;;;;5.57;2.20;;;;;;;;;;5013290;28;20034;-82
2022/07/30 10:14:44;;;;;;;4.72;2.15;;;27.80;64.50;;;;;;5002512;28;20084;-83
2022/07/30 10:17:11;;;;;;;3.45;1.80;;;27.90;61.80;;;;;;5003405;28;20030;-82
2022/07/30 10:19:38;;;;;;;6.05;1.80;;;27.90;62.10;;;;;;5003150;28;20038;-81
2022/07/30 10:22:04;;;;;;;4.70;1.90;;;;;;;;;;5005302;28;20018;-84
2022/07/30 10:24:34;;;;;;;3.20;2.03;;;28.10;61.90;;;;;;5018209;28;20097;-83
2022/07/30 10:27:00;;;;;;;4.65;1.88;;;;;;;;;;5018856;28;20026;-83
2022/07/30 10:29:25;;;;;;;3.65;1.80;;;28.10;62.00;;;;;;4995893;28;20038;-83
2022/07/30 10:31:51;;;;;;;3.25;1.85;;;28.20;62.50;;;;;;5001754;28;20083;-84
2022/07/30 10:34:18;;;;;;;5.13;1.90;;;28.40;62.20;;;;;;5017622;28;20018;-83
2022/07/30 10:36:56;;;;;;;5.65;1.80;;;28.50;62.70;;;;;;5020864;28;20061;-83
2022/07/30 10:39:31;;;;;;;5.07;2.05;;;28.60;61.80;;;;;;5012266;28;20101;-86
2022/07/30 10:42:48;;;;;;;3.38;1.60;;;28.50;60.60;;;;;;5007595;28;20125;-83
2022/07/30 10:45:23;;;;;;;5.63;1.98;;;28.70;60.30;;;;;;5006583;28;20034;-84
2022/07/30 10:47:51;;;;;;;4.22;1.73;;;28.70;59.70;;;;;;5016551;28;20041;-82
2022/07/30 10:50:21;;;;;;;4.50;1.80;;;28.70;59.50;;;;;;5005510;28;20026;-86
2022/07/30 10:52:51;;;;;;;3.67;2.03;;;27.30;59.20;;;;;;5005711;28;20029;-85
2022/07/30 10:55:22;;;;;;;5.13;1.58;;;28.80;60.50;;;;;;5026029;28;20039;-83
2022/07/30 10:57:57;;;;;;;3.17;1.60;;;29.00;58.40;;;;;;5014963;28;20030;-84
2022/07/30 11:00:25;;;;;;;2.85;1.52;;;;;;;;;;5006055;28;20022;-84
2022/07/30 11:03:10;;;;;;;3.63;1.60;;;29.10;57.90;;;;;;5021212;28;20026;-83
2022/07/30 11:05:39;;;;;;;3.40;1.40;;;29.00;57.90;;;;;;5001667;28;20030;-84
2022/07/30 11:08:31;;;;;;;4.55;1.55;;;29.10;58.60;;;;;;5003607;28;20097;-85
2022/07/30 11:10:58;;;;;;;2.63;1.40;;;29.20;57.40;;;;;;5002132;28;20022;-84
2022/07/30 11:13:49;;;;;;;6.38;1.52;;;29.40;56.80;;;;;;5003264;28;20037;-84
2022/07/30 11:16:16;;;;;;;7.95;4.07;;;29.40;57.30;;;;;;5005785;28;20095;-83
2022/07/30 11:19:23;;;;;;;4.65;1.40;;;29.40;57.00;;;;;;4991660;28;20427;-86
2022/07/30 11:22:24;;;;;;;4.80;1.85;;;29.50;56.50;;;;;;4994431;28;20034;-83
2022/07/30 11:24:50;;;;;;;5.80;1.60;;;;;;;;;;4994928;28;20033;-82
2022/07/30 11:27:37;;;;;;;5.15;1.67;;;29.70;55.50;;;;;;4999376;28;20032;-83
2022/07/30 11:30:30;;;;;;;6.85;1.98;;;29.60;55.70;;;;;;4993964;28;20029;-82
2022/07/30 11:33:16;;;;;;;2.42;1.40;;;29.50;56.20;;;;;;5011776;28;20031;-85
2022/07/30 11:36:09;;;;;;;4.78;1.30;;;29.30;56.10;;;;;;5016139;28;20113;-82
2022/07/30 11:38:58;;;;;;;3.70;1.77;;;29.30;56.60;;;;;;4992202;28;20062;-81
2022/07/30 11:41:24;;;;;;;3.30;1.50;;;29.40;56.80;;;;;;5000269;28;20022;-83
2022/07/30 11:44:27;;;;;;;4.32;1.58;;;29.40;56.50;;;;;;5019957;28;20041;-82
2022/07/30 11:46:53;;;;;;;7.03;1.83;;;;;;;;;;5001467;28;20113;-82
2022/07/30 11:49:19;;;;;;;5.65;1.88;;;29.70;56.30;;;;;;5017628;28;20057;-83
2022/07/30 11:51:46;;;;;;;4.05;1.90;;;29.90;56.90;;;;;;4999120;28;20030;-83
2022/07/30 11:54:12;;;;;;;3.08;1.48;;;29.80;57.00;;;;;;4999063;28;20021;-83
2022/07/30 11:56:54;;;;;;;6.70;1.77;;;29.70;55.90;;;;;;5002728;28;20034;-85
2022/07/30 11:59:20;;;;;;;4.22;1.65;;;;;;;;;;4999707;28;20455;-83
2022/07/30 12:01:51;;;;;;;2.55;1.30;;;29.70;55.10;;;;;;5013519;28;20030;-84
2022/07/30 12:04:17;;;;;;;7.03;1.83;;;;;;;;;;4995911;28;20030;-83
2022/07/30 12:06:45;;;;;;;2.55;1.40;;;30.10;55.00;;;;;;5018258;28;20038;-83
2022/07/30 12:09:27;;;;;;;5.43;1.60;;;28.10;54.50;;;;;;4978800;28;20042;-83
2022/07/30 12:11:54;;;;;;;3.53;1.38;;;;;;;;;;5013454;28;20018;-83
2022/07/30 12:14:20;;;;;;;2.70;1.23;;;;;;;;;;5020454;28;20080;-82
2022/07/30 12:16:53;;;;;;;3.35;1.30;;;30.10;53.60;;;;;;5002505;28;20042;-84
2022/07/30 12:19:19;;;;;;;5.63;1.35;;;;;;;;;;4999682;28;20082;-85
2022/07/30 12:21:45;;;;;;;3.67;1.20;;;;;;;;;;5000896;28;20038;-86
2022/07/30 12:24:12;;;;;;;5.68;1.30;;;;;;;;;;4992015;28;20041;-82
2022/07/30 12:26:38;;;;;;;3.10;1.30;;;;;;;;;;4999252;28;20034;-82
2022/07/30 12:29:09;;;;;;;2.50;1.40;;;30.10;54.20;;;;;;4996696;28;20050;-83
2022/07/30 12:31:35;;;;;;;4.13;1.63;;;;;;;;;;4995850;28;20023;-83
2022/07/30 12:34:01;;;;;;;4.10;1.58;;;;;;;;;;5016270;28;20022;-83
2022/07/30 12:36:33;;;;;;;1.67;1.20;;;30.10;54.00;;;;;;5015793;28;20072;-83
2022/07/30 12:39:03;;;;;;;2.58;1.58;;;30.20;54.10;;;;;;4996906;28;20030;-83
2022/07/30 12:41:46;;;;;;;2.10;1.40;;;30.10;54.40;;;;;;4992934;28;20030;-82
2022/07/30 12:44:35;;;;;;;2.92;1.25;;;29.70;54.10;;;;;;4995034;28;20029;-83
2022/07/30 12:47:01;;;;;;;3.07;1.50;;;30.10;54.30;;;;;;4999490;28;20033;-83
2022/07/30 12:49:31;;;;;;;3.00;1.38;;;30.20;54.90;;;;;;5016747;28;20273;-83
2022/07/30 12:51:58;;;;;;;2.92;1.40;;;;;;;;;;5015414;28;20072;-83
2022/07/30 12:54:24;;;;;;;4.03;2.05;;;;;;;;;;5002154;28;20022;-82
2022/07/30 12:57:04;;;;;;;4.40;1.45;;;30.10;54.90;;;;;;4997423;28;20045;-83
2022/07/30 12:59:34;;;;;;;3.85;2.05;;;29.90;54.60;;;;;;5003690;28;20038;-82
2022/07/30 13:02:30;;;;;;;3.17;1.38;;;29.90;54.60;;;;;;5024964;28;20033;-82
2022/07/30 13:04:56;;;;;;;2.15;1.30;;;;;;;;;;5005653;28;20069;-84
2022/07/30 13:07:22;;;;;;;4.00;1.48;;;;;;;;;;5033131;28;20017;-84
2022/07/30 13:10:07;;;;;;;2.60;1.10;;;30.30;52.70;;;;;;4997044;28;20117;-82
2022/07/30 13:12:34;;;;;;;3.00;1.10;;;;;;;;;;4979625;28;20026;-82
2022/07/30 13:15:00;;;;;;;1.50;0.93;;;;;;;;;;5001059;28;20026;-82
2022/07/30 13:17:25;;;;;;;2.60;1.15;;;30.00;54.10;;;;;;5015657;28;20042;-84
2022/07/30 13:19:53;;;;;;;3.15;1.27;;;;;;;;;;5001948;28;20042;-83
2022/07/30 13:22:19;;;;;;;4.13;1.10;;;;;;;;;;5000027;28;20032;-84
2022/07/30 13:24:44;;;;;;;2.08;1.17;;;29.90;52.70;;;;;;5017185;28;20069;-83
2022/07/30 13:27:10;;;;;;;2.42;1.10;;;29.90;53.30;;;;;;5000656;28;20026;-83
2022/07/30 13:29:36;;;;;;;3.70;1.10;;;30.10;53.50;;;;;;4997667;28;20125;-82
2022/07/30 13:32:01;;;;;;;3.92;1.65;;;30.30;52.90;;;;;;4989762;28;20660;-82
2022/07/30 13:34:28;;;;;;;3.72;1.15;;;30.40;53.10;;;;;;5005340;28;20193;-82
2022/07/30 13:36:54;;;;;;;4.03;1.42;;;;;;;;;;5004747;28;20034;-82